Portada
METAR-TAF:

METAR-TAF

Aeroports :

Ankara-Esenboğa, Turquia

latitud: 40-07N, longitud: 032-59E, altitud: 953 m

Observació

L'informe es va fer fa 28 minuts, a les 03:20 UTC
Vent calma
Temperatura -5°C
Humitat 79%
Pressió 1022 hPa
Visibilitat 10 km o més
sense núvols per sota de 1500 mi sense presència de cumulonimbus.

METAR: LTAC 210320Z 00000KT CAVOK M05/M08 Q1022 NOSIG RMK RWY21L VRB01KT RWY03L 10001KT RWY21R 00000KT

Hora: 06:48 (03:48 UTC)

Pronòstic

L'informe es va fer fa 5 hores i 8 minuts, a les 22:40 UTC
Pronòstic vàlid del 21 a les 00 UTC al 21 a les 24 UTC
Vent 2 kt amb direcció variable
Visibilitat 10 km o més
sense núvols per sota de 1500 mi sense presència de cumulonimbus.

TAF: LTAC 202240Z 2100/2124 VRB02KT CAVOK

Observacions i pronòstics meteorològics de més de 4000 aeroports (METAR i TAF).

Les estacions disponibles són els punts grocs i vermells al mapa.

Posi el ratolí al punt desitjat per veure el nom de l'estació.

Feu clic per veure les observacions i els pronòstics meteorològics.

Per canviar el mapa: feu clic els botons verds amb una creu de color negre per apropar; al botó verd amb un guió per allunyar la imatge; o en les fletxes verdes per a mapes adjacents.


METAR-TAF: